createdAt,value
2023-01-21T00:02:40.001Z,11.85
2023-01-21T00:07:41.722Z,11.73
2023-01-21T00:12:43.433Z,12.13
2023-01-21T00:17:45.173Z,12.07
2023-01-21T00:22:47.177Z,13.32
2023-01-21T00:27:48.922Z,11.55
2023-01-21T00:32:51.814Z,11.65
2023-01-21T00:37:53.727Z,12.23
2023-01-21T00:42:55.480Z,10.77
2023-01-21T00:47:57.257Z,9.80
2023-01-21T00:52:58.970Z,10.80
2023-01-21T00:58:00.678Z,10.63
2023-01-21T01:03:02.586Z,9.93
2023-01-21T01:08:04.370Z,8.80
2023-01-21T01:13:06.079Z,8.63
2023-01-21T01:18:07.797Z,8.43
2023-01-21T01:23:09.532Z,7.90
2023-01-21T01:28:11.243Z,8.15
2023-01-21T01:33:13.024Z,7.55
2023-01-21T01:38:16.720Z,8.32
2023-01-21T01:43:24.677Z,7.03
2023-01-21T01:48:31.205Z,6.97
2023-01-21T01:53:35.494Z,7.70
2023-01-21T01:58:38.566Z,7.50
2023-01-21T02:03:45.729Z,6.57
2023-01-21T02:08:48.170Z,6.82
2023-01-21T02:13:54.337Z,7.90
2023-01-21T02:19:39.186Z,6.65
2023-01-21T02:25:05.797Z,7.10
2023-01-21T02:30:18.397Z,6.35
2023-01-21T02:35:28.337Z,7.38
2023-01-21T02:41:00.354Z,6.65
2023-01-21T02:46:12.974Z,6.78
2023-01-21T02:51:14.816Z,6.30
2023-01-21T02:56:22.225Z,7.20
2023-01-21T03:01:45.890Z,6.90
2023-01-21T03:06:58.730Z,6.55
2023-01-21T03:12:17.170Z,6.43
2023-01-21T03:17:57.766Z,6.63
2023-01-21T03:23:08.353Z,5.82
2023-01-21T03:28:13.506Z,7.10
2023-01-21T03:33:18.076Z,7.03
2023-01-21T03:38:29.609Z,7.03
2023-01-21T03:43:31.885Z,6.63
2023-01-21T03:48:57.284Z,8.07
2023-01-21T03:53:59.707Z,6.53
2023-01-21T03:59:01.460Z,6.68
2023-01-21T04:04:03.279Z,6.60
2023-01-21T04:09:05.726Z,6.68
2023-01-21T04:14:07.515Z,6.68
2023-01-21T04:19:09.466Z,6.22
2023-01-21T04:24:11.243Z,7.00
2023-01-21T04:29:13.182Z,6.28
2023-01-21T04:34:16.672Z,6.57
2023-01-21T04:39:18.458Z,6.18
2023-01-21T04:44:20.273Z,6.55
2023-01-21T04:49:22.093Z,6.32
2023-01-21T04:54:23.818Z,6.47
2023-01-21T04:59:25.584Z,6.90
2023-01-21T05:04:27.409Z,6.47
2023-01-21T05:09:29.226Z,6.32
2023-01-21T05:14:30.986Z,5.35
2023-01-21T05:19:32.694Z,6.28
2023-01-21T05:24:34.463Z,6.53
2023-01-21T05:29:36.255Z,6.28
2023-01-21T05:34:37.958Z,5.85
2023-01-21T05:39:39.698Z,5.85
2023-01-21T05:44:41.431Z,6.22
2023-01-21T05:49:43.227Z,7.68
2023-01-21T05:55:00.648Z,30.35
2023-01-21T06:00:04.550Z,8.55
2023-01-21T06:05:07.159Z,6.72
2023-01-21T06:10:09.545Z,6.70
2023-01-21T06:15:11.644Z,6.93
2023-01-21T06:20:13.496Z,5.90
2023-01-21T06:25:15.255Z,5.90
2023-01-21T06:30:17.425Z,6.90
2023-01-21T06:35:19.428Z,6.60
2023-01-21T06:40:21.188Z,6.47
2023-01-21T06:45:22.933Z,6.47
2023-01-21T06:50:24.788Z,7.30
2023-01-21T06:55:26.513Z,8.57
2023-01-21T07:00:28.281Z,7.80
2023-01-21T07:05:30.142Z,5.57
2023-01-21T07:10:31.941Z,5.35
2023-01-21T07:15:33.740Z,4.57
2023-01-21T07:20:35.636Z,5.40
2023-01-21T07:25:38.247Z,5.43
2023-01-21T07:30:40.008Z,5.25
2023-01-21T07:35:41.767Z,5.03
2023-01-21T07:40:43.650Z,4.93
2023-01-21T07:45:45.924Z,5.72
2023-01-21T07:50:47.796Z,5.72
2023-01-21T07:55:49.553Z,4.70
2023-01-21T08:00:51.322Z,5.70
2023-01-21T08:05:53.108Z,4.38
2023-01-21T08:10:55.369Z,5.40
2023-01-21T08:15:57.619Z,5.18
2023-01-21T08:21:00.130Z,4.57
2023-01-21T08:26:03.355Z,4.95
2023-01-21T08:31:10.367Z,8.00
2023-01-21T08:36:12.254Z,5.10
2023-01-21T08:41:14.032Z,5.00
2023-01-21T08:46:15.767Z,7.30
2023-01-21T08:51:17.686Z,5.55
2023-01-21T08:56:19.653Z,4.53
2023-01-21T09:01:21.471Z,4.70
2023-01-21T09:06:24.592Z,4.70
2023-01-21T09:11:29.112Z,4.40
2023-01-21T09:16:31.827Z,4.80
2023-01-21T09:21:37.836Z,3.85
2023-01-21T09:26:43.965Z,3.97
2023-01-21T09:31:45.791Z,3.47
2023-01-21T09:36:47.603Z,3.65
2023-01-21T09:41:54.256Z,4.00
2023-01-21T09:47:11.045Z,3.60
2023-01-21T09:52:27.492Z,3.60
2023-01-21T09:57:39.294Z,4.65
2023-01-21T10:03:08.403Z,3.20
2023-01-21T10:08:46.124Z,3.55
2023-01-21T10:14:15.777Z,4.07
2023-01-21T10:19:28.329Z,3.42
2023-01-21T10:24:40.603Z,3.80
2023-01-21T10:29:42.834Z,3.65
2023-01-21T10:34:53.737Z,3.42
2023-01-21T10:40:11.997Z,2.88
2023-01-21T10:45:13.760Z,3.55
2023-01-21T10:50:54.492Z,2.80
2023-01-21T10:56:07.584Z,2.58
2023-01-21T11:01:29.238Z,3.15
2023-01-21T11:06:33.362Z,3.03
2023-01-21T11:11:37.321Z,3.25
2023-01-21T11:16:46.391Z,2.53
2023-01-21T11:22:17.303Z,3.00
2023-01-21T11:27:34.857Z,2.78
2023-01-21T11:32:36.629Z,2.28
2023-01-21T11:37:38.576Z,3.00
2023-01-21T11:42:55.026Z,2.97
2023-01-21T11:47:58.122Z,3.58
2023-01-21T11:53:12.956Z,3.08
2023-01-21T11:58:28.285Z,2.42
2023-01-21T12:03:45.689Z,2.25
2023-01-21T12:08:51.190Z,2.75
2023-01-21T12:14:30.670Z,2.83
2023-01-21T12:19:51.311Z,2.20
2023-01-21T12:25:38.325Z,3.42
2023-01-21T12:31:08.178Z,2.53
2023-01-21T12:36:29.859Z,2.97
2023-01-21T12:41:33.778Z,3.20
2023-01-21T12:46:41.447Z,2.97
2023-01-21T12:51:51.336Z,3.50
2023-01-21T12:57:20.453Z,3.67
2023-01-21T13:02:29.534Z,3.10
2023-01-21T13:07:56.541Z,3.58
2023-01-21T13:13:13.942Z,3.72
2023-01-21T13:18:21.351Z,4.03
2023-01-21T13:28:39.374Z,4.57
2023-01-21T13:33:51.790Z,3.50
2023-01-21T13:38:59.379Z,3.63
2023-01-21T13:44:19.837Z,3.35
2023-01-21T13:49:36.833Z,9.52
2023-01-21T13:54:47.706Z,6.27
2023-01-21T13:59:53.830Z,3.60
2023-01-21T14:05:02.485Z,3.22
2023-01-21T14:10:25.437Z,6.82
2023-01-21T14:15:42.304Z,3.60
2023-01-21T14:21:12.169Z,3.40
2023-01-21T14:26:13.845Z,3.95
2023-01-21T14:31:23.480Z,3.63
2023-01-21T14:36:48.642Z,4.07
2023-01-21T14:41:54.497Z,4.00
2023-01-21T14:47:16.859Z,4.20
2023-01-21T14:52:27.231Z,4.80
2023-01-21T14:57:32.568Z,3.80
2023-01-21T15:02:41.352Z,3.70
2023-01-21T15:07:47.170Z,4.15
2023-01-21T15:12:55.055Z,3.92
2023-01-21T15:17:57.854Z,4.03
2023-01-21T15:23:20.021Z,3.33
2023-01-21T15:28:25.027Z,6.80
2023-01-21T15:33:27.937Z,5.40
2023-01-21T15:38:29.849Z,4.63
2023-01-21T15:43:37.509Z,4.80
2023-01-21T15:49:00.546Z,4.53
2023-01-21T15:54:12.988Z,4.10
2023-01-21T15:59:51.506Z,4.15
2023-01-21T16:05:18.321Z,4.43
2023-01-21T16:10:43.838Z,4.28
2023-01-21T16:16:00.714Z,4.90
2023-01-21T16:21:03.851Z,4.17
2023-01-21T16:26:05.798Z,4.43
2023-01-21T16:31:07.627Z,5.00
2023-01-21T16:36:14.047Z,4.38
2023-01-21T16:41:20.533Z,4.63
2023-01-21T16:46:34.318Z,4.40
2023-01-21T16:51:40.380Z,4.47
2023-01-21T16:56:47.620Z,4.80
2023-01-21T17:01:52.057Z,5.53
2023-01-21T17:06:54.212Z,4.78
2023-01-21T17:12:00.433Z,5.25
2023-01-21T17:17:06.825Z,5.00
2023-01-21T17:22:21.689Z,5.75
2023-01-21T17:27:24.690Z,5.50
2023-01-21T17:32:38.004Z,5.90
2023-01-21T17:37:54.655Z,6.35
2023-01-21T17:42:58.169Z,7.20
2023-01-21T17:48:09.498Z,5.25
2023-01-21T17:53:41.192Z,6.25
2023-01-21T17:58:50.826Z,6.03
2023-01-21T18:03:52.568Z,4.38
2023-01-21T18:08:56.435Z,8.02
2023-01-21T18:13:59.455Z,4.40
2023-01-21T18:19:01.285Z,4.30
2023-01-21T18:24:03.160Z,4.57
2023-01-21T18:29:05.224Z,5.28
2023-01-21T18:34:07.407Z,5.43
2023-01-21T18:39:18.467Z,7.32
2023-01-21T18:44:20.251Z,4.05
2023-01-21T18:49:22.967Z,4.63
2023-01-21T18:54:24.839Z,5.78
2023-01-21T18:59:27.641Z,5.15
2023-01-21T19:04:29.519Z,5.72
2023-01-21T19:09:35.747Z,5.15
2023-01-21T19:14:37.495Z,5.20
2023-01-21T19:19:39.990Z,5.25
2023-01-21T19:24:42.065Z,5.88
2023-01-21T19:29:43.859Z,5.75
2023-01-21T19:34:45.601Z,6.03
2023-01-21T19:39:47.348Z,6.45
2023-01-21T19:44:49.087Z,6.65
2023-01-21T19:49:50.901Z,6.18
2023-01-21T19:54:54.919Z,6.60
2023-01-21T19:59:59.540Z,6.30
2023-01-21T20:05:01.300Z,6.68
2023-01-21T20:10:16.444Z,6.35
2023-01-21T20:15:21.865Z,7.55
2023-01-21T20:20:25.941Z,6.78
2023-01-21T20:25:36.598Z,7.55
2023-01-21T20:30:38.353Z,7.20
2023-01-21T20:35:40.342Z,7.13
2023-01-21T20:40:42.187Z,7.13
2023-01-21T20:45:47.459Z,8.32
2023-01-21T20:50:49.319Z,7.07
2023-01-21T20:55:52.688Z,6.97
2023-01-21T21:00:54.601Z,6.28
2023-01-21T21:05:56.366Z,7.07
2023-01-21T21:10:58.105Z,7.45
2023-01-21T21:15:59.840Z,7.05
2023-01-21T21:21:01.669Z,6.65
2023-01-21T21:26:03.421Z,8.27
2023-01-21T21:31:05.326Z,6.10
2023-01-21T21:36:21.225Z,6.30
2023-01-21T21:41:43.687Z,6.50
2023-01-21T21:47:04.254Z,6.50
2023-01-21T21:52:06.247Z,5.38
2023-01-21T21:57:07.998Z,5.95
2023-01-21T22:02:11.649Z,6.35
2023-01-21T22:07:13.383Z,7.22
2023-01-21T22:12:15.477Z,7.75
2023-01-21T22:17:17.224Z,7.95
2023-01-21T22:22:18.989Z,8.60
2023-01-21T22:27:20.742Z,8.20
2023-01-21T22:32:22.558Z,8.48
2023-01-21T22:37:24.308Z,9.02
2023-01-21T22:42:26.075Z,8.07
2023-01-21T22:47:31.968Z,8.18
2023-01-21T22:52:33.699Z,9.13
2023-01-21T22:57:35.410Z,9.40
2023-01-21T23:02:37.171Z,7.88
2023-01-21T23:07:38.989Z,8.13
2023-01-21T23:12:40.781Z,8.50
2023-01-21T23:17:42.695Z,8.25
2023-01-21T23:22:44.946Z,7.28
2023-01-21T23:27:46.846Z,9.30
2023-01-21T23:32:48.630Z,8.60
2023-01-21T23:37:52.694Z,8.40
2023-01-21T23:42:54.587Z,7.78
2023-01-21T23:47:56.356Z,7.88
2023-01-21T23:52:58.226Z,8.07
2023-01-21T23:57:59.974Z,8.68
